sensor_id;sensor_type;location;lat;lon;timestamp;pressure;altitude;pressure_sealevel;temperature;humidity
67109;BME280;54027;50.786;7.058;2022-09-14T00:02:05;100336.38;;;17.53;86.83
67109;BME280;54027;50.786;7.058;2022-09-14T00:04:31;100333.75;;;17.53;86.90
67109;BME280;54027;50.786;7.058;2022-09-14T00:06:56;100330.16;;;17.54;86.70
67109;BME280;54027;50.786;7.058;2022-09-14T00:09:22;100330.94;;;17.56;86.79
67109;BME280;54027;50.786;7.058;2022-09-14T00:11:47;100318.56;;;17.58;86.65
67109;BME280;54027;50.786;7.058;2022-09-14T00:14:13;100311.59;;;17.57;86.83
67109;BME280;54027;50.786;7.058;2022-09-14T00:16:41;100310.94;;;17.53;87.06
67109;BME280;54027;50.786;7.058;2022-09-14T00:19:19;100307.38;;;17.54;87.23
67109;BME280;54027;50.786;7.058;2022-09-14T00:21:48;100308.31;;;17.53;87.43
67109;BME280;54027;50.786;7.058;2022-09-14T00:24:16;100303.72;;;17.57;87.27
67109;BME280;54027;50.786;7.058;2022-09-14T00:26:41;100295.00;;;17.56;87.25
67109;BME280;54027;50.786;7.058;2022-09-14T00:29:07;100294.34;;;17.53;87.51
67109;BME280;54027;50.786;7.058;2022-09-14T00:31:34;100290.59;;;17.57;87.54
67109;BME280;54027;50.786;7.058;2022-09-14T00:34:00;100301.94;;;17.57;87.58
67109;BME280;54027;50.786;7.058;2022-09-14T00:36:26;100293.38;;;17.54;87.75
67109;BME280;54027;50.786;7.058;2022-09-14T00:38:53;100294.34;;;17.53;87.65
67109;BME280;54027;50.786;7.058;2022-09-14T00:41:23;100287.03;;;17.58;87.62
67109;BME280;54027;50.786;7.058;2022-09-14T00:46:35;100279.09;;;17.59;87.75
67109;BME280;54027;50.786;7.058;2022-09-14T00:49:01;100267.81;;;17.57;88.14
67109;BME280;54027;50.786;7.058;2022-09-14T00:51:27;100264.19;;;17.60;88.07
67109;BME280;54027;50.786;7.058;2022-09-14T00:53:53;100256.44;;;17.57;88.16
67109;BME280;54027;50.786;7.058;2022-09-14T00:56:19;100248.56;;;17.57;88.15
67109;BME280;54027;50.786;7.058;2022-09-14T00:58:45;100246.06;;;17.55;88.05
67109;BME280;54027;50.786;7.058;2022-09-14T01:01:12;100248.66;;;17.55;88.11
67109;BME280;54027;50.786;7.058;2022-09-14T01:03:37;100248.75;;;17.54;88.11
67109;BME280;54027;50.786;7.058;2022-09-14T01:06:09;100242.63;;;17.53;88.26
67109;BME280;54027;50.786;7.058;2022-09-14T01:08:41;100244.28;;;17.56;87.93
67109;BME280;54027;50.786;7.058;2022-09-14T01:13:44;100246.97;;;17.54;88.27
67109;BME280;54027;50.786;7.058;2022-09-14T01:18:37;100254.84;;;17.54;88.17
67109;BME280;54027;50.786;7.058;2022-09-14T01:21:19;100261.03;;;17.53;88.10
67109;BME280;54027;50.786;7.058;2022-09-14T01:29:24;100255.03;;;17.51;88.38
67109;BME280;54027;50.786;7.058;2022-09-14T01:31:53;100255.13;;;17.50;88.53
67109;BME280;54027;50.786;7.058;2022-09-14T01:34:25;100262.06;;;17.51;88.55
67109;BME280;54027;50.786;7.058;2022-09-14T01:36:54;100265.53;;;17.51;88.45
67109;BME280;54027;50.786;7.058;2022-09-14T01:39:21;100264.50;;;17.54;88.49
67109;BME280;54027;50.786;7.058;2022-09-14T01:41:47;100261.31;;;17.49;88.89
67109;BME280;54027;50.786;7.058;2022-09-14T01:44:27;100268.16;;;17.51;88.92
67109;BME280;54027;50.786;7.058;2022-09-14T01:46:56;100263.75;;;17.52;89.22
67109;BME280;54027;50.786;7.058;2022-09-14T01:49:27;100264.69;;;17.51;89.13
67109;BME280;54027;50.786;7.058;2022-09-14T01:52:00;100263.81;;;17.50;88.86
67109;BME280;54027;50.786;7.058;2022-09-14T01:54:32;100262.84;;;17.53;88.73
67109;BME280;54027;50.786;7.058;2022-09-14T01:57:09;100257.66;;;17.51;88.52
67109;BME280;54027;50.786;7.058;2022-09-14T01:59:40;100242.75;;;17.52;88.73
67109;BME280;54027;50.786;7.058;2022-09-14T02:07:13;100236.41;;;17.56;88.30
67109;BME280;54027;50.786;7.058;2022-09-14T02:09:38;100240.88;;;17.54;88.42
67109;BME280;54027;50.786;7.058;2022-09-14T02:12:04;100229.63;;;17.52;88.42
67109;BME280;54027;50.786;7.058;2022-09-14T02:14:29;100232.25;;;17.52;88.60
67109;BME280;54027;50.786;7.058;2022-09-14T02:16:54;100230.66;;;17.49;88.91
67109;BME280;54027;50.786;7.058;2022-09-14T02:19:20;100218.38;;;17.50;88.64
67109;BME280;54027;50.786;7.058;2022-09-14T02:21:45;100220.13;;;17.49;88.86
67109;BME280;54027;50.786;7.058;2022-09-14T02:24:11;100212.25;;;17.49;88.68
67109;BME280;54027;50.786;7.058;2022-09-14T02:26:37;100216.56;;;17.50;88.72
67109;BME280;54027;50.786;7.058;2022-09-14T02:29:03;100210.50;;;17.50;88.63
67109;BME280;54027;50.786;7.058;2022-09-14T02:39:29;100202.69;;;17.48;88.76
67109;BME280;54027;50.786;7.058;2022-09-14T02:51:53;100182.34;;;17.52;88.45
67109;BME280;54027;50.786;7.058;2022-09-14T02:54:30;100180.66;;;17.51;88.38
67109;BME280;54027;50.786;7.058;2022-09-14T02:57:01;100172.75;;;17.51;88.52
67109;BME280;54027;50.786;7.058;2022-09-14T02:59:27;100171.09;;;17.50;88.37
67109;BME280;54027;50.786;7.058;2022-09-14T03:01:53;100171.91;;;17.50;88.29
67109;BME280;54027;50.786;7.058;2022-09-14T03:04:18;100161.41;;;17.50;88.56
67109;BME280;54027;50.786;7.058;2022-09-14T03:06:43;100151.94;;;17.48;88.80
67109;BME280;54027;50.786;7.058;2022-09-14T03:09:09;100157.19;;;17.48;88.73
67109;BME280;54027;50.786;7.058;2022-09-14T03:11:34;100158.16;;;17.47;88.36
67109;BME280;54027;50.786;7.058;2022-09-14T03:13:59;100163.28;;;17.48;88.46
67109;BME280;54027;50.786;7.058;2022-09-14T03:16:24;100146.63;;;17.49;88.35
67109;BME280;54027;50.786;7.058;2022-09-14T03:18:51;100153.72;;;17.47;88.38
67109;BME280;54027;50.786;7.058;2022-09-14T03:21:16;100153.72;;;17.47;88.27
67109;BME280;54027;50.786;7.058;2022-09-14T03:23:43;100149.31;;;17.48;88.37
67109;BME280;54027;50.786;7.058;2022-09-14T03:26:09;100144.06;;;17.48;88.52
67109;BME280;54027;50.786;7.058;2022-09-14T03:28:35;100151.94;;;17.48;88.53
67109;BME280;54027;50.786;7.058;2022-09-14T03:31:01;100146.78;;;17.46;88.36
67109;BME280;54027;50.786;7.058;2022-09-14T03:33:26;100134.41;;;17.48;88.26
67109;BME280;54027;50.786;7.058;2022-09-14T03:35:52;100135.34;;;17.47;88.40
67109;BME280;54027;50.786;7.058;2022-09-14T03:38:17;100137.31;;;17.44;88.78
67109;BME280;54027;50.786;7.058;2022-09-14T03:40:43;100142.47;;;17.45;88.43
67109;BME280;54027;50.786;7.058;2022-09-14T03:43:09;100138.91;;;17.46;88.63
67109;BME280;54027;50.786;7.058;2022-09-14T03:45:36;100142.28;;;17.48;88.40
67109;BME280;54027;50.786;7.058;2022-09-14T03:48:02;100137.97;;;17.47;88.72
67109;BME280;54027;50.786;7.058;2022-09-14T03:50:27;100133.47;;;17.49;88.41
67109;BME280;54027;50.786;7.058;2022-09-14T03:52:52;100134.41;;;17.48;88.63
67109;BME280;54027;50.786;7.058;2022-09-14T03:55:17;100136.28;;;17.46;88.65
67109;BME280;54027;50.786;7.058;2022-09-14T03:57:43;100142.41;;;17.47;88.79
67109;BME280;54027;50.786;7.058;2022-09-14T04:00:10;100125.78;;;17.46;88.61
67109;BME280;54027;50.786;7.058;2022-09-14T04:02:35;100137.13;;;17.47;88.51
67109;BME280;54027;50.786;7.058;2022-09-14T04:05:00;100136.19;;;17.48;88.73
67109;BME280;54027;50.786;7.058;2022-09-14T04:07:26;100133.56;;;17.48;88.83
67109;BME280;54027;50.786;7.058;2022-09-14T04:09:51;100135.34;;;17.47;88.86
67109;BME280;54027;50.786;7.058;2022-09-14T04:12:16;100124.09;;;17.45;88.78
67109;BME280;54027;50.786;7.058;2022-09-14T04:14:42;100129.25;;;17.47;88.81
67109;BME280;54027;50.786;7.058;2022-09-14T04:17:07;100133.84;;;17.43;89.02
67109;BME280;54027;50.786;7.058;2022-09-14T04:19:32;100122.31;;;17.46;88.73
67109;BME280;54027;50.786;7.058;2022-09-14T04:21:58;100117.13;;;17.44;88.83
67109;BME280;54027;50.786;7.058;2022-09-14T04:24:24;100112.72;;;17.45;88.62
67109;BME280;54027;50.786;7.058;2022-09-14T04:26:49;100109.25;;;17.44;88.70
67109;BME280;54027;50.786;7.058;2022-09-14T04:29:15;100113.69;;;17.44;88.69
67109;BME280;54027;50.786;7.058;2022-09-14T04:31:40;100110.09;;;17.45;88.69
67109;BME280;54027;50.786;7.058;2022-09-14T04:34:05;100109.25;;;17.44;88.74
67109;BME280;54027;50.786;7.058;2022-09-14T04:36:31;100112.66;;;17.46;88.68
67109;BME280;54027;50.786;7.058;2022-09-14T04:39:00;100109.25;;;17.44;88.83
67109;BME280;54027;50.786;7.058;2022-09-14T04:41:26;100113.69;;;17.44;88.89
67109;BME280;54027;50.786;7.058;2022-09-14T04:43:53;100104.84;;;17.45;88.64
67109;BME280;54027;50.786;7.058;2022-09-14T04:46:19;100111.88;;;17.44;88.68
67109;BME280;54027;50.786;7.058;2022-09-14T04:48:45;100103.06;;;17.45;88.82
67109;BME280;54027;50.786;7.058;2022-09-14T04:51:11;100108.44;;;17.44;88.94
67109;BME280;54027;50.786;7.058;2022-09-14T04:53:38;100099.59;;;17.45;88.89
67109;BME280;54027;50.786;7.058;2022-09-14T04:56:07;100104.13;;;17.43;88.75
67109;BME280;54027;50.786;7.058;2022-09-14T04:58:33;100098.84;;;17.43;88.96
67109;BME280;54027;50.786;7.058;2022-09-14T05:01:02;100104.38;;;17.38;88.94
67109;BME280;54027;50.786;7.058;2022-09-14T05:03:28;100098.31;;;17.38;88.96
67109;BME280;54027;50.786;7.058;2022-09-14T05:05:54;100091.53;;;17.34;88.78
67109;BME280;54027;50.786;7.058;2022-09-14T05:08:20;100083.72;;;17.32;89.06
67109;BME280;54027;50.786;7.058;2022-09-14T05:10:45;100088.72;;;17.37;88.69
67109;BME280;54027;50.786;7.058;2022-09-14T05:13:10;100084.22;;;17.39;88.85
67109;BME280;54027;50.786;7.058;2022-09-14T05:15:35;100083.47;;;17.37;88.82
67109;BME280;54027;50.786;7.058;2022-09-14T05:18:01;100083.66;;;17.34;88.91
67109;BME280;54027;50.786;7.058;2022-09-14T05:20:27;100085.44;;;17.33;88.83
67109;BME280;54027;50.786;7.058;2022-09-14T05:22:52;100077.47;;;17.35;88.98
67109;BME280;54027;50.786;7.058;2022-09-14T05:25:17;100077.38;;;17.36;89.10
67109;BME280;54027;50.786;7.058;2022-09-14T05:27:43;100078.41;;;17.34;89.44
67109;BME280;54027;50.786;7.058;2022-09-14T05:30:08;100075.03;;;17.32;89.16
67109;BME280;54027;50.786;7.058;2022-09-14T05:32:34;100080.19;;;17.33;88.90
67109;BME280;54027;50.786;7.058;2022-09-14T05:34:59;100083.47;;;17.37;88.86
67109;BME280;54027;50.786;7.058;2022-09-14T05:37:24;100074.84;;;17.35;88.81
67109;BME280;54027;50.786;7.058;2022-09-14T05:39:50;100079.16;;;17.36;88.86
67109;BME280;54027;50.786;7.058;2022-09-14T05:42:15;100079.81;;;17.39;88.54
67109;BME280;54027;50.786;7.058;2022-09-14T05:44:40;100079.06;;;17.37;88.70
67109;BME280;54027;50.786;7.058;2022-09-14T05:47:05;100085.19;;;17.38;88.90
67109;BME280;54027;50.786;7.058;2022-09-14T05:49:31;100086.00;;;17.38;88.81
67109;BME280;54027;50.786;7.058;2022-09-14T05:51:56;100087.63;;;17.41;88.73
67109;BME280;54027;50.786;7.058;2022-09-14T05:54:21;100080.56;;;17.41;88.74
67109;BME280;54027;50.786;7.058;2022-09-14T05:56:47;100078.13;;;17.38;88.98
67109;BME280;54027;50.786;7.058;2022-09-14T05:59:12;100071.09;;;17.39;88.99
67109;BME280;54027;50.786;7.058;2022-09-14T06:01:37;100075.50;;;17.38;88.98
67109;BME280;54027;50.786;7.058;2022-09-14T06:04:03;100075.50;;;17.38;88.87
67109;BME280;54027;50.786;7.058;2022-09-14T06:06:28;100074.50;;;17.41;89.00
67109;BME280;54027;50.786;7.058;2022-09-14T06:08:54;100075.59;;;17.37;88.97
67109;BME280;54027;50.786;7.058;2022-09-14T06:11:22;100077.19;;;17.39;88.97
67109;BME280;54027;50.786;7.058;2022-09-14T06:13:47;100076.34;;;17.39;89.12
67109;BME280;54027;50.786;7.058;2022-09-14T06:16:14;100068.28;;;17.42;89.06
67109;BME280;54027;50.786;7.058;2022-09-14T06:18:40;100083.28;;;17.40;89.04
67109;BME280;54027;50.786;7.058;2022-09-14T06:21:06;100077.28;;;17.38;89.11
67109;BME280;54027;50.786;7.058;2022-09-14T06:23:31;100081.69;;;17.37;89.26
67109;BME280;54027;50.786;7.058;2022-09-14T06:25:57;100084.22;;;17.39;89.22
67109;BME280;54027;50.786;7.058;2022-09-14T06:28:23;100086.00;;;17.38;89.06
67109;BME280;54027;50.786;7.058;2022-09-14T06:30:49;100085.25;;;17.36;88.96
67109;BME280;54027;50.786;7.058;2022-09-14T06:33:15;100087.63;;;17.41;88.91
67109;BME280;54027;50.786;7.058;2022-09-14T06:35:41;100086.84;;;17.39;88.77
67109;BME280;54027;50.786;7.058;2022-09-14T06:38:07;100087.78;;;17.38;89.24
67109;BME280;54027;50.786;7.058;2022-09-14T06:40:32;100079.25;;;17.34;89.34
67109;BME280;54027;50.786;7.058;2022-09-14T06:42:58;100082.63;;;17.36;89.15
67109;BME280;54027;50.786;7.058;2022-09-14T06:45:27;100093.78;;;17.40;89.16
67109;BME280;54027;50.786;7.058;2022-09-14T06:47:53;100091.84;;;17.43;89.18
67109;BME280;54027;50.786;7.058;2022-09-14T06:50:18;100093.78;;;17.40;89.33
67109;BME280;54027;50.786;7.058;2022-09-14T06:52:43;100095.31;;;17.44;89.04
67109;BME280;54027;50.786;7.058;2022-09-14T06:55:08;100093.88;;;17.38;89.63
67109;BME280;54027;50.786;7.058;2022-09-14T06:57:34;100091.41;;;17.35;89.49
67109;BME280;54027;50.786;7.058;2022-09-14T07:00:02;100090.41;;;17.38;89.66
67109;BME280;54027;50.786;7.058;2022-09-14T07:02:27;100099.78;;;17.42;89.73
67109;BME280;54027;50.786;7.058;2022-09-14T07:04:53;100093.78;;;17.40;89.64
67109;BME280;54027;50.786;7.058;2022-09-14T07:07:18;100088.44;;;17.41;89.52
67109;BME280;54027;50.786;7.058;2022-09-14T07:09:43;100092.88;;;17.41;89.43
67109;BME280;54027;50.786;7.058;2022-09-14T07:12:09;100085.81;;;17.41;89.62
67109;BME280;54027;50.786;7.058;2022-09-14T07:14:35;100090.25;;;17.41;89.45
67109;BME280;54027;50.786;7.058;2022-09-14T07:17:00;100081.41;;;17.42;89.63
67109;BME280;54027;50.786;7.058;2022-09-14T07:19:26;100083.97;;;17.43;89.64
67109;BME280;54027;50.786;7.058;2022-09-14T07:21:51;100080.56;;;17.41;89.63
67109;BME280;54027;50.786;7.058;2022-09-14T07:24:18;100072.59;;;17.43;89.56
67109;BME280;54027;50.786;7.058;2022-09-14T07:26:43;100068.28;;;17.42;89.72
67109;BME280;54027;50.786;7.058;2022-09-14T07:29:13;100068.19;;;17.43;89.77
67109;BME280;54027;50.786;7.058;2022-09-14T07:31:43;100064.81;;;17.41;89.82
67109;BME280;54027;50.786;7.058;2022-09-14T07:34:09;100058.44;;;17.45;89.36
67109;BME280;54027;50.786;7.058;2022-09-14T07:36:35;100050.56;;;17.45;89.29
67109;BME280;54027;50.786;7.058;2022-09-14T07:39:03;100056.66;;;17.46;89.46
67109;BME280;54027;50.786;7.058;2022-09-14T07:41:29;100057.53;;;17.46;89.35
67109;BME280;54027;50.786;7.058;2022-09-14T07:43:55;100059.38;;;17.44;89.66
67109;BME280;54027;50.786;7.058;2022-09-14T07:46:21;100054.78;;;17.48;89.75
67109;BME280;54027;50.786;7.058;2022-09-14T07:48:47;100055.56;;;17.50;89.67
67109;BME280;54027;50.786;7.058;2022-09-14T07:51:13;100054.69;;;17.49;89.73
67109;BME280;54027;50.786;7.058;2022-09-14T07:53:39;100056.38;;;17.50;89.60
67109;BME280;54027;50.786;7.058;2022-09-14T07:56:06;100052.75;;;17.53;89.88
67109;BME280;54027;50.786;7.058;2022-09-14T07:58:32;100051.03;;;17.52;89.69
67109;BME280;54027;50.786;7.058;2022-09-14T08:01:18;100056.00;;;17.56;89.68
67109;BME280;54027;50.786;7.058;2022-09-14T08:03:43;100056.00;;;17.56;89.72
67109;BME280;54027;50.786;7.058;2022-09-14T08:06:11;100048.81;;;17.60;89.84
67109;BME280;54027;50.786;7.058;2022-09-14T08:08:38;100052.38;;;17.59;89.73
67109;BME280;54027;50.786;7.058;2022-09-14T08:13:40;100046.75;;;17.65;89.70
67109;BME280;54027;50.786;7.058;2022-09-14T08:16:06;100049.38;;;17.65;89.76
67109;BME280;54027;50.786;7.058;2022-09-14T08:18:32;100049.28;;;17.67;89.75
67109;BME280;54027;50.786;7.058;2022-09-14T08:21:09;100059.06;;;17.65;89.55
67109;BME280;54027;50.786;7.058;2022-09-14T08:23:35;100065.31;;;17.62;89.35
67109;BME280;54027;50.786;7.058;2022-09-14T08:26:01;100059.25;;;17.62;88.99
67109;BME280;54027;50.786;7.058;2022-09-14T08:28:26;100055.59;;;17.64;88.90
67109;BME280;54027;50.786;7.058;2022-09-14T08:30:51;100057.25;;;17.65;89.12
67109;BME280;54027;50.786;7.058;2022-09-14T08:33:17;100062.50;;;17.65;89.29
67109;BME280;54027;50.786;7.058;2022-09-14T08:35:42;100059.13;;;17.63;89.07
67109;BME280;54027;50.786;7.058;2022-09-14T08:38:08;100065.50;;;17.59;88.76
67109;BME280;54027;50.786;7.058;2022-09-14T08:40:33;100070.75;;;17.59;89.19
67109;BME280;54027;50.786;7.058;2022-09-14T08:43:00;100074.03;;;17.63;89.28
67109;BME280;54027;50.786;7.058;2022-09-14T08:45:26;100078.38;;;17.64;89.18
67109;BME280;54027;50.786;7.058;2022-09-14T08:47:53;100076.94;;;17.58;87.94
67109;BME280;54027;50.786;7.058;2022-09-14T08:50:19;100073.75;;;17.53;87.46
67109;BME280;54027;50.786;7.058;2022-09-14T08:58:59;100087.44;;;17.44;86.92
67109;BME280;54027;50.786;7.058;2022-09-14T09:00:54;100079.91;;;17.38;87.42
67109;BME280;54027;50.786;7.058;2022-09-14T09:03:32;100091.91;;;17.42;87.61
67109;BME280;54027;50.786;7.058;2022-09-14T09:06:12;100085.72;;;17.43;87.75
67109;BME280;54027;50.786;7.058;2022-09-14T09:08:46;100084.63;;;17.47;87.38
67109;BME280;54027;50.786;7.058;2022-09-14T09:11:16;100082.94;;;17.46;87.91
67109;BME280;54027;50.786;7.058;2022-09-14T09:13:42;100080.28;;;17.32;87.95
67109;BME280;54027;50.786;7.058;2022-09-14T09:16:08;100080.19;;;17.33;87.28
67109;BME280;54027;50.786;7.058;2022-09-14T09:18:43;100085.81;;;17.41;87.13
67109;BME280;54027;50.786;7.058;2022-09-14T09:23:36;100085.63;;;17.44;86.51
67109;BME280;54027;50.786;7.058;2022-09-14T09:26:06;100095.50;;;17.41;85.97
67109;BME280;54027;50.786;7.058;2022-09-14T09:28:37;100092.00;;;17.40;86.32
67109;BME280;54027;50.786;7.058;2022-09-14T09:31:04;100085.91;;;17.40;85.73
67109;BME280;54027;50.786;7.058;2022-09-14T09:33:31;100081.34;;;17.43;85.34
67109;BME280;54027;50.786;7.058;2022-09-14T09:35:56;100077.84;;;17.43;86.01
67109;BME280;54027;50.786;7.058;2022-09-14T09:38:23;100077.00;;;17.42;86.26
67109;BME280;54027;50.786;7.058;2022-09-14T09:40:53;100078.41;;;17.48;86.05
67109;BME280;54027;50.786;7.058;2022-09-14T09:43:19;100085.44;;;17.47;86.65
67109;BME280;54027;50.786;7.058;2022-09-14T09:46:00;100085.00;;;17.41;87.25
67109;BME280;54027;50.786;7.058;2022-09-14T09:48:31;100083.84;;;17.45;87.58
67109;BME280;54027;50.786;7.058;2022-09-14T09:50:59;100077.19;;;17.39;86.37
67109;BME280;54027;50.786;7.058;2022-09-14T09:53:25;100074.75;;;17.36;86.53
67109;BME280;54027;50.786;7.058;2022-09-14T09:55:51;100061.63;;;17.36;86.09
67109;BME280;54027;50.786;7.058;2022-09-14T10:00:59;100045.97;;;17.35;86.03
67109;BME280;54027;50.786;7.058;2022-09-14T10:03:25;100041.47;;;17.37;85.88
67109;BME280;54027;50.786;7.058;2022-09-14T10:06:13;100050.09;;;17.39;85.88
67109;BME280;54027;50.786;7.058;2022-09-14T10:08:42;100053.00;;;17.34;85.83
67109;BME280;54027;50.786;7.058;2022-09-14T10:11:24;100039.88;;;17.34;86.47
67109;BME280;54027;50.786;7.058;2022-09-14T10:13:51;100035.47;;;17.35;86.32
67109;BME280;54027;50.786;7.058;2022-09-14T10:16:17;100038.38;;;17.44;86.50
67109;BME280;54027;50.786;7.058;2022-09-14T10:18:45;100040.81;;;17.33;86.28
67109;BME280;54027;50.786;7.058;2022-09-14T10:21:10;100042.22;;;17.39;86.41
67109;BME280;54027;50.786;7.058;2022-09-14T10:23:37;100042.38;;;17.36;86.35
67109;BME280;54027;50.786;7.058;2022-09-14T10:28:44;100056.09;;;17.41;85.95
67109;BME280;54027;50.786;7.058;2022-09-14T10:33:36;100050.94;;;17.39;86.91
67109;BME280;54027;50.786;7.058;2022-09-14T10:36:06;100044.75;;;17.40;87.07
67109;BME280;54027;50.786;7.058;2022-09-14T10:38:36;100053.47;;;17.41;86.58
67109;BME280;54027;50.786;7.058;2022-09-14T10:46:19;100050.09;;;17.39;86.38
67109;BME280;54027;50.786;7.058;2022-09-14T10:51:22;100050.75;;;17.42;86.47
67109;BME280;54027;50.786;7.058;2022-09-14T10:53:58;100064.53;;;17.46;86.47
67109;BME280;54027;50.786;7.058;2022-09-14T11:02:12;100054.03;;;17.32;86.36
67109;BME280;54027;50.786;7.058;2022-09-14T11:12:16;100055.97;;;17.14;87.88
67109;BME280;54027;50.786;7.058;2022-09-14T11:14:47;100053.25;;;17.16;87.88
67109;BME280;54027;50.786;7.058;2022-09-14T11:17:23;100042.06;;;17.12;87.37
67109;BME280;54027;50.786;7.058;2022-09-14T11:20:01;100028.97;;;17.12;87.59
67109;BME280;54027;50.786;7.058;2022-09-14T11:22:45;100018.75;;;17.22;88.62
67109;BME280;54027;50.786;7.058;2022-09-14T11:25:18;100026.94;;;17.17;88.32
67109;BME280;54027;50.786;7.058;2022-09-14T11:27:50;100028.69;;;17.17;88.51
67109;BME280;54027;50.786;7.058;2022-09-14T11:30:20;100021.56;;;17.19;88.81
67109;BME280;54027;50.786;7.058;2022-09-14T11:32:51;100030.84;;;17.10;87.30
67109;BME280;54027;50.786;7.058;2022-09-14T11:40:20;100021.88;;;17.28;88.70
67109;BME280;54027;50.786;7.058;2022-09-14T11:45:16;100022.91;;;17.26;88.28
67109;BME280;54027;50.786;7.058;2022-09-14T11:47:43;100007.81;;;17.29;88.27
67109;BME280;54027;50.786;7.058;2022-09-14T11:50:16;100014.06;;;17.27;87.85
67109;BME280;54027;50.786;7.058;2022-09-14T11:52:42;100002.81;;;17.25;87.30
67109;BME280;54027;50.786;7.058;2022-09-14T11:55:08;100000.13;;;17.26;88.42
67109;BME280;54027;50.786;7.058;2022-09-14T11:57:35;99999.72;;;17.32;88.55
67109;BME280;54027;50.786;7.058;2022-09-14T12:00:03;99999.47;;;17.37;88.47
67109;BME280;54027;50.786;7.058;2022-09-14T12:07:56;99995.91;;;17.38;87.71
67109;BME280;54027;50.786;7.058;2022-09-14T12:10:22;99997.69;;;17.37;88.34
67109;BME280;54027;50.786;7.058;2022-09-14T12:51:14;99983.41;;;17.41;87.75
67109;BME280;54027;50.786;7.058;2022-09-14T12:53:43;99986.03;;;17.41;87.53
67109;BME280;54027;50.786;7.058;2022-09-14T12:56:36;99981.38;;;17.46;87.48
67109;BME280;54027;50.786;7.058;2022-09-14T12:59:02;99980.41;;;17.33;87.08
67109;BME280;54027;50.786;7.058;2022-09-14T13:03:59;99978.66;;;17.34;87.85
67109;BME280;54027;50.786;7.058;2022-09-14T13:06:27;99971.25;;;17.40;86.87
67109;BME280;54027;50.786;7.058;2022-09-14T13:08:56;99963.38;;;17.40;87.07
67109;BME280;54027;50.786;7.058;2022-09-14T13:11:34;99964.97;;;17.29;87.25
67109;BME280;54027;50.786;7.058;2022-09-14T13:14:01;99964.59;;;17.35;87.89
67109;BME280;54027;50.786;7.058;2022-09-14T13:18:58;99961.00;;;17.36;86.78
67109;BME280;54027;50.786;7.058;2022-09-14T13:21:24;99956.97;;;17.30;86.87
67109;BME280;54027;50.786;7.058;2022-09-14T13:23:50;99957.72;;;17.32;87.51
67109;BME280;54027;50.786;7.058;2022-09-14T13:26:25;99958.75;;;17.30;87.38
67109;BME280;54027;50.786;7.058;2022-09-14T13:28:52;99961.19;;;17.33;87.86
67109;BME280;54027;50.786;7.058;2022-09-14T13:31:29;99958.03;;;17.28;87.32
67109;BME280;54027;50.786;7.058;2022-09-14T13:33:56;99958.75;;;17.30;86.38
67109;BME280;54027;50.786;7.058;2022-09-14T13:36:25;99963.94;;;17.31;87.48
67109;BME280;54027;50.786;7.058;2022-09-14T13:38:51;99982.69;;;17.25;87.44
67109;BME280;54027;50.786;7.058;2022-09-14T13:41:18;99968.44;;;17.29;86.86
67109;BME280;54027;50.786;7.058;2022-09-14T13:43:44;99960.34;;;17.32;87.05
67109;BME280;54027;50.786;7.058;2022-09-14T13:46:11;99956.13;;;17.30;87.22
67109;BME280;54027;50.786;7.058;2022-09-14T13:48:38;99961.38;;;17.30;87.47
67109;BME280;54027;50.786;7.058;2022-09-14T13:51:07;99963.94;;;17.31;86.97
67109;BME280;54027;50.786;7.058;2022-09-14T13:53:46;99959.59;;;17.30;87.17
67109;BME280;54027;50.786;7.058;2022-09-14T13:58:44;99962.91;;;17.34;87.65
67109;BME280;54027;50.786;7.058;2022-09-14T14:01:09;99954.34;;;17.30;87.16
67109;BME280;54027;50.786;7.058;2022-09-14T14:03:36;99955.75;;;17.36;87.13
67109;BME280;54027;50.786;7.058;2022-09-14T14:08:50;99951.38;;;17.22;86.58
67109;BME280;54027;50.786;7.058;2022-09-14T14:11:23;99946.47;;;17.30;87.04
67109;BME280;54027;50.786;7.058;2022-09-14T14:13:49;99940.13;;;17.34;86.79
67109;BME280;54027;50.786;7.058;2022-09-14T14:16:19;99933.16;;;17.33;86.86
67109;BME280;54027;50.786;7.058;2022-09-14T14:18:48;99929.69;;;17.33;87.05
67109;BME280;54027;50.786;7.058;2022-09-14T14:26:38;99937.56;;;17.33;86.03
67109;BME280;54027;50.786;7.058;2022-09-14T14:29:13;99934.41;;;17.28;85.83
67109;BME280;54027;50.786;7.058;2022-09-14T14:31:40;99937.69;;;17.31;85.73
67109;BME280;54027;50.786;7.058;2022-09-14T14:37:00;99949.78;;;17.20;85.35
67109;BME280;54027;50.786;7.058;2022-09-14T14:39:26;99958.50;;;17.20;86.12
67109;BME280;54027;50.786;7.058;2022-09-14T14:41:52;99976.41;;;17.14;85.75
67109;BME280;54027;50.786;7.058;2022-09-14T14:44:21;99972.63;;;17.18;87.22
67109;BME280;54027;50.786;7.058;2022-09-14T14:46:48;99967.94;;;17.08;87.89
67109;BME280;54027;50.786;7.058;2022-09-14T14:49:14;99975.16;;;17.05;88.65
67109;BME280;54027;50.786;7.058;2022-09-14T14:51:40;99978.16;;;16.99;87.75
67109;BME280;54027;50.786;7.058;2022-09-14T14:54:06;99978.06;;;17.00;88.23
67109;BME280;54027;50.786;7.058;2022-09-14T14:56:31;99967.47;;;17.02;88.00
67109;BME280;54027;50.786;7.058;2022-09-14T14:58:57;99962.13;;;17.03;87.24
67109;BME280;54027;50.786;7.058;2022-09-14T15:01:22;99944.13;;;16.97;87.23
67109;BME280;54027;50.786;7.058;2022-09-14T15:03:47;99945.91;;;16.97;87.16
67109;BME280;54027;50.786;7.058;2022-09-14T15:06:14;99946.75;;;16.97;87.27
67109;BME280;54027;50.786;7.058;2022-09-14T15:08:42;99958.19;;;16.96;87.90
67109;BME280;54027;50.786;7.058;2022-09-14T15:11:11;99945.81;;;16.98;87.88
67109;BME280;54027;50.786;7.058;2022-09-14T15:13:38;99943.94;;;17.00;88.42
67109;BME280;54027;50.786;7.058;2022-09-14T15:16:03;99942.28;;;16.99;88.22
67109;BME280;54027;50.786;7.058;2022-09-14T15:18:28;99936.06;;;17.00;88.27
67109;BME280;54027;50.786;7.058;2022-09-14T15:20:54;99944.13;;;16.97;88.13